Time;durP1;ratioP1;P1;durP2;ratioP2;P2;SDS_P1;SDS_P2;PMS_P1;PMS_P2;Temp;Humidity;BMP_temperature;BMP_pressure;BME280_temperature;BME280_humidity;BME280_pressure;Samples;Min_cycle;Max_cycle;Signal;HPM_P1;HPM_P2
2022/08/20 00:01:43;;;;;;;34.90;31.33;;;;;;;24.54;59.76;100382.30;1708648;82;20901;-76
2022/08/20 00:04:27;;;;;;;35.38;31.60;;;;;;;24.53;59.88;100394.31;1717752;82;20936;-76
2022/08/20 00:07:14;;;;;;;33.30;29.90;;;;;;;24.53;59.94;100411.02;1704827;82;20900;-76
2022/08/20 00:09:59;;;;;;;34.63;31.05;;;;;;;24.45;59.99;100415.20;1710474;82;20890;-76
2022/08/20 00:12:47;;;;;;;35.13;31.42;;;;;;;24.26;60.18;100411.84;1705111;82;20949;-76
2022/08/20 00:15:35;;;;;;;33.48;30.27;;;;;;;24.21;60.37;100415.28;1713273;82;20952;-76
2022/08/20 00:18:21;;;;;;;35.63;30.12;;;;;;;24.19;60.47;100419.36;1701133;82;20933;-76
2022/08/20 00:21:11;;;;;;;34.87;31.57;;;;;;;24.19;60.57;100409.27;1713852;82;20905;-76
2022/08/20 00:23:56;;;;;;;34.08;30.65;;;;;;;24.20;60.63;100409.15;1706597;82;20937;-76
2022/08/20 00:26:41;;;;;;;34.35;30.85;;;;;;;24.21;60.70;100408.19;1710758;82;20909;-76
2022/08/20 00:29:26;;;;;;;33.23;29.95;;;;;;;24.18;60.78;100416.34;1707152;82;20948;-76
2022/08/20 00:32:11;;;;;;;35.25;31.48;;;;;;;24.17;60.91;100430.52;1714531;82;20948;-76
2022/08/20 00:34:56;;;;;;;37.25;29.75;;;;;;;24.17;61.00;100425.23;1711764;82;20933;-76
2022/08/20 00:37:42;;;;;;;31.17;28.07;;;;;;;24.18;61.06;100430.04;1715027;82;20929;-76
2022/08/20 00:40:30;;;;;;;;;;;;;;;24.20;61.17;100428.13;1711857;82;20953;-76
2022/08/20 00:43:35;;;;;;;30.43;27.37;;;;;;;24.19;61.48;100429.08;1705664;82;20107;-76
2022/08/20 00:46:27;;;;;;;32.50;29.20;;;;;;;24.18;61.26;100435.33;1713708;80;20905;-76
2022/08/20 00:49:17;;;;;;;32.75;29.48;;;;;;;24.18;61.34;100436.64;1704973;82;21524;-76
2022/08/20 00:52:12;;;;;;;34.15;30.27;;;;;;;24.19;61.43;100447.09;1712048;82;20901;-76
2022/08/20 00:55:00;;;;;;;34.70;31.10;;;;;;;24.18;61.51;100444.09;1699825;82;20904;-76
2022/08/20 00:57:52;;;;;;;33.55;30.30;;;;;;;24.17;61.55;100449.02;1714746;82;20909;-76
2022/08/20 01:00:41;;;;;;;34.80;31.33;;;;;;;24.14;61.71;100431.23;1702292;82;20945;-76
2022/08/20 01:03:26;;;;;;;34.78;31.30;;;;;;;24.14;61.81;100424.14;1681110;83;20944;-76
2022/08/20 01:06:11;;;;;;;33.40;29.90;;;;;;;24.16;61.87;100412.98;1713555;82;21389;-76
2022/08/20 01:08:57;;;;;;;34.45;30.62;;;;;;;24.15;61.95;100409.98;1720207;82;20937;-76
2022/08/20 01:11:42;;;;;;;32.60;29.32;;;;;;;24.15;62.04;100411.78;1714666;82;20905;-76
2022/08/20 01:14:42;;;;;;;31.52;28.38;;;;;;;24.14;62.09;100418.86;1714883;82;21421;-76
2022/08/20 01:17:22;;;;;;;33.58;30.27;;;;;;;24.15;62.16;100422.34;1714007;82;21378;-76
2022/08/20 01:20:18;;;;;;;37.10;30.88;;;;;;;24.13;62.21;100418.98;1690018;82;20882;-76
2022/08/20 01:23:29;;;;;;;34.98;30.20;;;;;;;24.12;62.26;100419.94;1695846;82;20932;-76
2022/08/20 01:26:39;;;;;;;31.50;28.40;;;;;;;24.07;62.33;100433.48;1669954;84;20982;-76
2022/08/20 01:29:28;;;;;;;31.12;28.05;;;;;;;24.04;62.43;100442.96;1644024;86;20951;-76
2022/08/20 01:32:13;;;;;;;33.65;30.12;;;;;;;24.01;62.53;100445.83;1665145;84;20950;-76
2022/08/20 01:34:58;;;;;;;34.80;31.20;;;;;;;23.99;62.61;100445.95;1673873;84;21431;-76
2022/08/20 01:37:42;;;;;;;33.92;30.55;;;;;;;24.00;62.70;100443.67;1675343;81;20966;-76
2022/08/20 01:40:54;;;;;;;33.83;30.43;;;;;;;24.02;62.79;100448.84;1649686;85;20958;-76
2022/08/20 01:43:40;;;;;;;33.60;30.30;;;;;;;24.05;62.82;100447.29;1654019;84;20966;-76
2022/08/20 01:46:33;;;;;;;33.25;29.87;;;;;;;24.04;62.86;100439.84;1661436;84;20951;-76
2022/08/20 01:49:28;;;;;;;33.53;30.12;;;;;;;24.05;62.94;100440.20;1656704;85;21387;-76
2022/08/20 01:52:18;;;;;;;32.88;29.57;;;;;;;24.05;63.00;100434.08;1655218;85;20926;-76
2022/08/20 01:55:04;;;;;;;32.93;29.75;;;;;;;23.99;63.10;100437.18;1643780;84;20974;-76
2022/08/20 01:57:49;;;;;;;32.40;29.18;;;;;;;23.96;63.20;100443.53;1639810;84;165786;-76
2022/08/20 02:00:34;;;;;;;33.45;30.25;;;;;;;23.97;63.28;100440.41;1645046;84;20958;-76
2022/08/20 02:03:19;;;;;;;32.90;29.65;;;;;;;23.99;63.35;100442.46;1650178;85;22040;-76
2022/08/20 02:06:05;;;;;;;31.42;28.35;;;;;;;24.01;63.40;100451.12;1649733;84;479339;-76
2022/08/20 02:08:51;;;;;;;33.60;30.50;;;;;;;24.01;63.48;100451.12;1672481;84;21846;-76
2022/08/20 02:11:37;;;;;;;33.48;29.75;;;;;;;24.00;63.53;100451.59;1672267;84;20958;-76
2022/08/20 02:14:22;;;;;;;35.25;30.02;;;;;;;24.01;63.62;100449.80;1655255;84;20942;-76
2022/08/20 02:17:08;;;;;;;32.08;28.98;;;;;;;24.00;63.64;100437.06;1655448;85;20919;-76
2022/08/20 02:20:19;;;;;;;32.75;29.20;;;;;;;24.04;63.71;100440.32;1684096;84;21874;-76
2022/08/20 02:23:05;;;;;;;32.05;28.75;;;;;;;24.03;63.73;100434.67;1680385;82;20945;-76
2022/08/20 02:25:50;;;;;;;30.80;27.62;;;;;;;24.04;63.80;100435.88;1666405;82;20930;-76
2022/08/20 02:28:35;;;;;;;31.42;28.42;;;;;;;24.07;63.85;100438.77;1660821;85;21471;-76
2022/08/20 02:31:22;;;;;;;32.20;29.07;;;;;;;24.03;63.91;100436.84;1675801;84;20942;-76
2022/08/20 02:34:10;;;;;;;31.57;28.00;;;;;;;24.03;63.96;100433.36;1654879;85;21416;-76
2022/08/20 02:36:55;;;;;;;31.90;28.60;;;;;;;24.00;64.02;100430.94;1660617;84;20918;-76
2022/08/20 02:39:40;;;;;;;31.37;28.15;;;;;;;23.90;64.08;100425.53;1653333;85;20942;-76
2022/08/20 02:42:25;;;;;;;30.92;27.62;;;;;;;23.86;64.24;100417.95;1669018;84;21309;-76
2022/08/20 02:45:14;;;;;;;29.72;26.80;;;;;;;23.83;64.29;100416.37;1664704;85;20938;-76
2022/08/20 02:47:59;;;;;;;30.80;27.75;;;;;;;23.84;64.35;100414.58;1677429;84;20973;-76
2022/08/20 02:50:44;;;;;;;30.72;27.55;;;;;;;23.81;64.39;100412.17;1681735;81;21541;-76
2022/08/20 02:53:32;;;;;;;31.93;28.55;;;;;;;23.76;64.44;100412.03;1671928;82;20945;-76
2022/08/20 02:56:18;;;;;;;30.65;27.65;;;;;;;23.74;64.53;100406.02;1643023;85;20970;-76
2022/08/20 02:59:03;;;;;;;29.45;26.52;;;;;;;23.74;64.55;100402.06;1661342;85;20978;-77
2022/08/20 03:01:48;;;;;;;28.85;26.17;;;;;;;23.72;64.59;100403.97;1651588;85;20962;-77
2022/08/20 03:04:32;;;;;;;29.57;26.57;;;;;;;23.68;64.66;100405.15;1650237;85;20955;-76
2022/08/20 03:07:17;;;;;;;29.63;26.73;;;;;;;23.66;64.70;100400.94;1668822;84;20975;-76
2022/08/20 03:10:02;;;;;;;29.45;26.55;;;;;;;23.63;64.77;100395.89;1655924;84;20906;-76
2022/08/20 03:12:48;;;;;;;31.52;28.52;;;;;;;23.62;64.81;100404.76;1673675;84;20965;-76
2022/08/20 03:15:34;;;;;;;29.65;26.70;;;;;;;23.61;64.83;100411.00;1671554;84;20962;-76
2022/08/20 03:18:21;;;;;;;28.38;25.77;;;;;;;23.60;64.88;100402.71;1653514;84;20922;-76
2022/08/20 03:21:08;;;;;;;31.27;28.17;;;;;;;23.59;64.92;100401.87;1663753;83;21007;-76
2022/08/20 03:23:53;;;;;;;31.12;27.98;;;;;;;23.58;64.95;100402.82;1680393;83;20961;-76
2022/08/20 03:26:37;;;;;;;29.85;27.02;;;;;;;23.60;64.99;100402.23;1677390;83;20918;-76
2022/08/20 03:29:22;;;;;;;29.90;26.55;;;;;;;23.59;65.02;100399.70;1675275;81;20973;-76
2022/08/20 03:32:07;;;;;;;30.45;27.55;;;;;;;23.57;65.07;100399.81;1683332;83;21445;-76
2022/08/20 03:34:52;;;;;;;30.10;27.30;;;;;;;23.54;65.13;100401.84;1672303;84;20921;-76
2022/08/20 03:37:38;;;;;;;30.30;27.30;;;;;;;23.51;65.21;100398.91;1721940;81;20944;-76
2022/08/20 03:40:27;;;;;;;29.02;26.17;;;;;;;23.50;65.24;100400.34;1724423;82;20917;-76
2022/08/20 03:43:12;;;;;;;30.60;27.70;;;;;;;23.50;65.30;100403.83;1724003;81;20901;-76
2022/08/20 03:45:57;;;;;;;29.98;26.80;;;;;;;23.50;65.36;100406.95;1713377;81;20952;-76
2022/08/20 03:48:42;;;;;;;28.73;25.90;;;;;;;23.49;65.42;100406.58;1711963;81;21413;-76
2022/08/20 03:51:32;;;;;;;25.37;23.15;;;;;;;23.48;65.47;100398.30;1720670;81;21417;-76
2022/08/20 03:54:17;;;;;;;26.65;24.23;;;;;;;23.44;65.52;100398.52;1723441;82;20940;-76
2022/08/20 03:57:02;;;;;;;29.12;26.33;;;;;;;23.42;65.52;100403.06;1726071;81;20894;-76
2022/08/20 03:59:47;;;;;;;28.30;25.50;;;;;;;23.41;65.56;100412.41;1722992;81;20952;-76
2022/08/20 04:02:32;;;;;;;29.48;26.70;;;;;;;23.39;65.60;100405.11;1723759;81;20945;-76
2022/08/20 04:05:17;;;;;;;29.63;26.52;;;;;;;23.35;65.68;100400.53;1721234;81;20952;-76
2022/08/20 04:08:04;;;;;;;30.02;27.30;;;;;;;23.35;65.74;100405.81;1711700;81;21393;-76
2022/08/20 04:10:50;;;;;;;29.82;26.93;;;;;;;23.33;65.75;100409.04;1721917;82;20937;-76
2022/08/20 04:13:35;;;;;;;30.72;27.85;;;;;;;23.31;65.82;100410.95;1687431;83;20905;-76
2022/08/20 04:16:20;;;;;;;30.32;27.35;;;;;;;23.33;65.82;100408.20;1687565;83;20917;-76
2022/08/20 04:19:05;;;;;;;28.60;25.70;;;;;;;23.33;65.89;100412.16;1721143;82;21441;-76
2022/08/20 04:21:49;;;;;;;29.12;26.35;;;;;;;23.32;65.95;100418.39;1715950;82;20937;-76
2022/08/20 04:24:36;;;;;;;29.48;26.48;;;;;;;23.33;65.98;100408.20;1715381;82;20913;-76
2022/08/20 04:27:20;;;;;;;;;;;;;;;23.34;66.06;100398.85;1714317;83;20929;-76
2022/08/20 04:30:09;;;;;;;27.58;24.72;;;;;;;23.32;66.33;100399.91;1715536;82;20123;-76
2022/08/20 04:32:55;;;;;;;27.50;24.90;;;;;;;23.32;66.12;100402.55;1711784;83;21509;-76
2022/08/20 04:35:40;;;;;;;30.12;27.20;;;;;;;23.34;66.20;100403.28;1714476;82;21402;-76
2022/08/20 04:38:25;;;;;;;29.80;26.77;;;;;;;23.36;66.23;100396.94;1705123;83;20893;-76
2022/08/20 04:41:09;;;;;;;29.10;26.42;;;;;;;23.39;66.28;100403.32;1705580;82;20926;-76
2022/08/20 04:43:57;;;;;;;28.30;25.45;;;;;;;23.42;66.30;100410.98;1714880;83;21413;-76
2022/08/20 04:46:42;;;;;;;26.93;24.43;;;;;;;23.45;66.36;100408.59;1713372;82;21786;-76
2022/08/20 04:49:27;;;;;;;28.98;26.27;;;;;;;23.47;66.41;100411.13;1714797;83;20893;-76
2022/08/20 04:52:12;;;;;;;28.85;26.25;;;;;;;23.48;66.44;100403.09;1597513;82;10000597;-76
2022/08/20 04:54:56;;;;;;;28.55;25.95;;;;;;;23.50;66.50;100402.98;1707110;82;21554;-76
2022/08/20 04:57:43;;;;;;;29.18;26.30;;;;;;;23.53;66.51;100390.88;1715139;82;21438;-76
2022/08/20 05:00:28;;;;;;;27.67;25.20;;;;;;;23.56;66.53;100388.05;1711696;82;20893;-76
2022/08/20 05:03:13;;;;;;;29.40;26.73;;;;;;;23.59;66.57;100387.83;1706577;82;20921;-76
2022/08/20 05:05:58;;;;;;;28.92;25.95;;;;;;;23.61;66.60;100394.67;1720138;82;20913;-76
2022/08/20 05:08:44;;;;;;;27.80;25.02;;;;;;;23.64;66.66;100397.09;1677177;84;20934;-77
2022/08/20 05:11:29;;;;;;;31.10;27.90;;;;;;;23.67;66.67;100394.23;1714235;82;20893;-77
2022/08/20 05:14:14;;;;;;;30.37;26.68;;;;;;;23.70;66.71;100390.52;1703565;82;20945;-77
2022/08/20 05:17:05;;;;;;;29.98;27.07;;;;;;;23.74;66.73;100390.17;1713388;82;20905;-77
2022/08/20 05:19:52;;;;;;;30.72;27.62;;;;;;;23.78;66.79;100392.59;1708906;82;20901;-77
2022/08/20 05:22:36;;;;;;;29.65;26.77;;;;;;;23.84;66.83;100390.34;1709962;82;21390;-77
2022/08/20 05:25:22;;;;;;;30.48;27.52;;;;;;;23.90;66.88;100384.59;1708605;82;20897;-77
2022/08/20 05:28:11;;;;;;;29.98;27.02;;;;;;;23.99;66.90;100394.92;1704239;82;20933;-77
2022/08/20 05:30:56;;;;;;;30.45;27.48;;;;;;;24.06;66.92;100398.78;1704794;82;20897;-77
2022/08/20 05:33:42;;;;;;;30.52;27.45;;;;;;;24.14;66.96;100405.65;1709419;82;20890;-76
2022/08/20 05:36:26;;;;;;;27.30;24.85;;;;;;;24.21;66.97;100408.19;1702928;82;20921;-76
2022/08/20 05:39:12;;;;;;;29.65;26.55;;;;;;;24.26;66.99;100411.36;1706448;82;20933;-76
2022/08/20 05:41:56;;;;;;;29.92;26.85;;;;;;;24.33;66.98;100415.70;1687657;82;20981;-76
2022/08/20 05:44:41;;;;;;;28.42;24.92;;;;;;;24.41;67.00;100411.52;1699742;82;20905;-76
2022/08/20 05:47:27;;;;;;;27.07;24.20;;;;;;;24.46;67.00;100415.57;1707323;82;20953;-76
2022/08/20 05:50:15;;;;;;;29.52;26.62;;;;;;;24.51;67.03;100419.55;1706212;82;21408;-76
2022/08/20 05:53:00;;;;;;;28.60;25.70;;;;;;;24.58;67.00;100423.87;1706578;82;20942;-76
2022/08/20 05:55:46;;;;;;;29.77;26.85;;;;;;;24.62;66.99;100420.04;1708081;82;20945;-77
2022/08/20 05:58:31;;;;;;;29.90;25.60;;;;;;;24.64;67.00;100423.41;1707769;82;20938;-77
2022/08/20 06:01:16;;;;;;;28.47;25.48;;;;;;;24.69;67.01;100423.89;1701841;82;20902;-78
2022/08/20 06:07:07;;;;;;;28.60;25.45;;;;;;;24.75;67.01;100422.94;1707895;82;21418;-77
2022/08/20 06:09:52;;;;;;;31.37;26.82;;;;;;;24.78;67.01;100429.78;1706759;82;20931;-77
2022/08/20 06:12:37;;;;;;;29.80;26.65;;;;;;;24.77;67.01;100437.84;1706010;82;20917;-77
2022/08/20 06:15:21;;;;;;;29.50;26.45;;;;;;;24.75;67.00;100442.77;1709995;82;20917;-77
2022/08/20 06:18:08;;;;;;;30.17;26.80;;;;;;;24.75;67.03;100448.06;1707332;81;20925;-78
2022/08/20 06:20:53;;;;;;;32.58;27.25;;;;;;;24.76;67.02;100443.61;1705873;82;20969;-78
2022/08/20 06:23:38;;;;;;;30.88;27.55;;;;;;;24.77;67.02;100449.74;1703941;82;20894;-78
2022/08/20 06:26:23;;;;;;;30.72;27.77;;;;;;;24.79;66.99;100443.38;1710170;82;21469;-78
2022/08/20 06:29:08;;;;;;;32.60;29.20;;;;;;;24.82;66.98;100447.10;1706731;82;20945;-78
2022/08/20 06:31:54;;;;;;;31.10;27.85;;;;;;;24.86;66.94;100450.35;1702788;82;20890;-78
2022/08/20 06:34:39;;;;;;;31.37;28.17;;;;;;;24.86;66.98;100453.84;1704343;82;20905;-77
2022/08/20 06:37:27;;;;;;;29.25;26.27;;;;;;;24.89;66.96;100464.18;1711141;82;20901;-76
2022/08/20 06:40:16;;;;;;;34.08;28.60;;;;;;;24.91;66.92;100469.34;1703290;82;20913;-76
2022/08/20 06:43:01;;;;;;;31.57;28.27;;;;;;;24.90;66.89;100475.60;1707033;82;21517;-76
2022/08/20 06:45:46;;;;;;;30.68;26.73;;;;;;;24.87;66.94;100484.62;1667407;84;20974;-76
2022/08/20 06:48:31;;;;;;;30.97;27.70;;;;;;;24.86;66.91;100483.41;1653082;85;21419;-76
2022/08/20 06:51:16;;;;;;;32.17;27.20;;;;;;;24.84;66.91;100486.66;1669857;84;20918;-76
2022/08/20 06:54:01;;;;;;;30.35;27.10;;;;;;;24.79;66.93;100488.33;1646744;85;20966;-76
2022/08/20 06:56:46;;;;;;;28.73;25.62;;;;;;;24.79;66.93;100488.81;1671527;84;20926;-77
2022/08/20 06:59:31;;;;;;;30.23;26.90;;;;;;;24.79;66.94;100486.17;1657666;85;20966;-77
2022/08/20 07:02:16;;;;;;;30.77;27.62;;;;;;;24.79;66.93;100483.52;1670721;84;20938;-77
2022/08/20 07:05:03;;;;;;;28.17;25.40;;;;;;;24.77;66.88;100490.73;1652446;85;20951;-77
2022/08/20 07:07:49;;;;;;;29.48;26.20;;;;;;;24.75;66.92;100479.80;1655970;84;21009;-77
2022/08/20 07:10:34;;;;;;;29.48;26.33;;;;;;;24.77;66.93;100476.19;1653321;84;20922;-77
2022/08/20 07:13:19;;;;;;;28.55;25.57;;;;;;;24.78;66.91;100475.23;1653449;85;20943;-77
2022/08/20 07:16:05;;;;;;;30.60;27.07;;;;;;;24.82;66.89;100481.48;1668581;83;21328;-77
2022/08/20 07:18:50;;;;;;;29.37;26.45;;;;;;;24.87;66.88;100478.48;1656996;85;20966;-77
2022/08/20 07:21:35;;;;;;;30.12;26.93;;;;;;;24.87;66.84;100477.16;1671471;84;20982;-77
2022/08/20 07:24:20;;;;;;;28.67;25.88;;;;;;;24.88;66.83;100466.46;1654376;85;21021;-77
2022/08/20 07:27:05;;;;;;;29.55;26.50;;;;;;;24.90;66.81;100468.98;1667667;84;21144;-77
2022/08/20 07:32:56;;;;;;;29.90;26.55;;;;;;;25.04;66.84;100453.72;1651684;83;20986;-77
2022/08/20 07:35:42;;;;;;;29.65;26.73;;;;;;;25.16;66.73;100458.53;1669479;84;21109;-77
2022/08/20 07:38:29;;;;;;;;;;;;;;;25.25;66.74;100458.28;1656044;85;21065;-77
2022/08/20 07:41:15;;;;;;;27.80;24.80;;;;;;;25.34;66.68;100462.36;1671430;82;20223;-77
2022/08/20 07:44:01;;;;;;;28.32;25.23;;;;;;;25.44;66.66;100457.66;1670441;84;21095;-78
2022/08/20 07:46:46;;;;;;;35.43;27.10;;;;;;;25.53;66.52;100463.50;1652922;85;22275;-78
2022/08/20 07:49:32;;;;;;;30.10;26.85;;;;;;;25.73;66.57;100467.58;1656256;83;21541;-83
2022/08/20 07:52:17;;;;;;;26.90;24.03;;;;;;;25.73;66.57;100467.58;1653278;85;21105;-77
2022/08/20 07:55:09;;;;;;;29.00;25.88;;;;;;;25.83;66.48;100462.84;1652780;85;21786;-77
2022/08/20 07:57:57;;;;;;;29.10;26.10;;;;;;;25.85;66.42;100455.62;1671247;83;21073;-77
2022/08/20 08:00:43;;;;;;;28.55;23.57;;;;;;;25.98;66.48;100458.45;1670594;82;21096;-77
2022/08/20 08:03:28;;;;;;;26.75;24.07;;;;;;;25.98;66.48;100458.45;1672039;82;21050;-77
2022/08/20 08:06:14;;;;;;;27.80;24.95;;;;;;;26.19;66.29;100484.95;1670098;82;21132;-77
2022/08/20 08:09:04;;;;;;;26.93;23.98;;;;;;;26.26;66.17;100480.83;1651766;85;21081;-77
2022/08/20 08:11:49;;;;;;;27.27;24.47;;;;;;;26.29;66.06;100483.70;1666636;84;21061;-77
2022/08/20 08:14:34;;;;;;;26.62;23.98;;;;;;;26.33;66.03;100480.70;1653000;84;21058;-77
2022/08/20 08:17:19;;;;;;;26.07;23.52;;;;;;;26.39;65.96;100479.34;1666954;84;21143;-77
2022/08/20 08:20:08;;;;;;;26.42;23.83;;;;;;;26.47;65.87;100477.37;1646608;85;21089;-78
2022/08/20 08:22:53;;;;;;;24.63;22.13;;;;;;;26.54;65.76;100475.38;1630829;85;21483;-77
2022/08/20 08:25:42;;;;;;;25.23;22.65;;;;;;;26.79;65.78;100479.42;1668547;84;20961;-77
2022/08/20 08:28:29;;;;;;;25.15;22.45;;;;;;;27.14;65.58;100483.50;1653889;85;21381;-77
2022/08/20 08:31:14;;;;;;;24.10;21.68;;;;;;;27.29;65.22;100476.85;1641214;85;21960;-77
2022/08/20 08:33:59;;;;;;;23.77;21.57;;;;;;;27.38;65.15;100477.86;1669245;84;20927;-77
2022/08/20 08:36:44;;;;;;;25.08;22.50;;;;;;;27.50;65.07;100470.13;1654449;84;20942;-77
2022/08/20 08:39:30;;;;;;;22.20;19.98;;;;;;;27.55;65.00;100474.55;1671918;83;21442;-77
2022/08/20 08:42:32;;;;;;;24.20;19.70;;;;;;;27.91;64.90;100468.58;1671666;83;20975;-77
2022/08/20 08:45:19;;;;;;;22.58;20.43;;;;;;;28.18;64.61;100473.16;1654417;84;20982;-77
2022/08/20 08:48:04;;;;;;;22.55;20.48;;;;;;;28.27;64.39;100477.67;1674147;82;20943;-80
2022/08/20 08:50:52;;;;;;;23.07;20.47;;;;;;;28.31;64.19;100480.40;1659421;84;20930;-80
2022/08/20 08:53:41;;;;;;;23.90;21.57;;;;;;;28.30;64.08;100480.05;1672966;84;21217;-80
2022/08/20 08:56:29;;;;;;;25.52;22.93;;;;;;;28.23;63.86;100481.59;1656273;85;20939;-80
2022/08/20 08:59:14;;;;;;;23.40;20.97;;;;;;;28.08;63.57;100484.30;1674466;82;20978;-78
2022/08/20 09:02:01;;;;;;;25.05;22.70;;;;;;;27.95;63.61;100483.77;1654297;84;20959;-78
2022/08/20 09:04:46;;;;;;;24.95;21.57;;;;;;;27.89;63.54;100476.34;1652398;84;20922;-76
2022/08/20 09:07:33;;;;;;;21.77;19.73;;;;;;;27.90;63.38;100478.02;1673611;84;20934;-78
2022/08/20 09:10:18;;;;;;;24.92;22.52;;;;;;;27.99;63.35;100482.50;1673542;83;20924;-78
2022/08/20 09:13:04;;;;;;;24.32;22.00;;;;;;;28.03;63.01;100481.25;1670357;84;21008;-78
2022/08/20 09:15:49;;;;;;;24.20;21.37;;;;;;;28.03;62.92;100480.41;1674332;81;20950;-79
2022/08/20 09:18:33;;;;;;;25.15;22.45;;;;;;;28.08;62.79;100481.64;1655403;85;20934;-79
2022/08/20 09:21:19;;;;;;;25.35;21.93;;;;;;;28.12;62.62;100475.05;1647622;85;20953;-79
2022/08/20 09:24:04;;;;;;;23.73;21.33;;;;;;;28.13;62.41;100479.39;1679605;83;22298;-79
2022/08/20 09:26:49;;;;;;;23.77;21.35;;;;;;;28.10;62.32;100487.66;1662631;84;21493;-80
2022/08/20 09:29:35;;;;;;;23.55;20.97;;;;;;;28.10;62.16;100486.32;1714399;82;22177;-79
2022/08/20 09:32:22;;;;;;;24.40;21.03;;;;;;;28.09;62.05;100480.66;1713382;82;21028;-78
2022/08/20 09:35:09;;;;;;;22.17;19.98;;;;;;;28.07;61.87;100490.63;1713451;82;21083;-78
2022/08/20 09:37:54;;;;;;;27.75;20.80;;;;;;;28.04;61.83;100490.06;1718883;82;20992;-78
2022/08/20 09:40:40;;;;;;;23.32;20.97;;;;;;;27.95;61.71;100492.58;1716630;82;21008;-78
2022/08/20 09:43:25;;;;;;;24.72;22.35;;;;;;;27.87;61.62;100490.26;1716097;82;21032;-81
2022/08/20 09:46:11;;;;;;;24.20;21.85;;;;;;;27.81;61.50;100492.14;1715567;82;21519;-78
2022/08/20 09:48:55;;;;;;;25.53;21.13;;;;;;;27.73;61.35;100490.17;1713542;82;21602;-78
2022/08/20 09:51:40;;;;;;;24.73;20.41;;;;;;;27.61;61.31;100493.44;1648294;82;5001146;-78
2022/08/20 09:54:28;;;;;;;25.08;22.67;;;;;;;27.56;61.25;100494.78;1740162;81;20946;-78
2022/08/20 09:57:12;;;;;;;25.17;22.75;;;;;;;27.51;61.18;100498.37;1620609;80;10000162;-78
2022/08/20 10:00:02;;;;;;;25.62;23.02;;;;;;;27.40;61.12;100492.68;1739242;80;20893;-78
2022/08/20 10:02:47;;;;;;;25.82;23.20;;;;;;;27.36;61.06;100495.25;1739661;81;21045;-78
2022/08/20 10:05:32;;;;;;;23.42;21.02;;;;;;;27.31;61.00;100496.98;1740204;80;21068;-78
2022/08/20 10:08:17;;;;;;;25.00;22.37;;;;;;;27.31;60.97;100496.14;1737817;80;21108;-79
2022/08/20 10:11:03;;;;;;;23.60;21.20;;;;;;;27.30;60.89;100493.13;1740067;81;22166;-78
2022/08/20 10:13:48;;;;;;;27.13;22.55;;;;;;;27.29;60.84;100492.30;1740298;81;21052;-78
2022/08/20 10:16:33;;;;;;;24.23;21.82;;;;;;;27.29;60.79;100493.63;1739635;80;21077;-78
2022/08/20 10:19:18;;;;;;;23.40;21.10;;;;;;;27.26;60.71;100488.58;1739801;81;21040;-80
2022/08/20 10:22:05;;;;;;;24.47;21.97;;;;;;;27.22;60.72;100492.97;1733001;81;21010;-77
2022/08/20 10:24:50;;;;;;;23.67;21.25;;;;;;;27.22;60.68;100491.64;1735204;81;22308;-78
2022/08/20 10:27:37;;;;;;;24.27;21.80;;;;;;;27.23;60.63;100490.17;1710141;81;21144;-77
2022/08/20 10:30:22;;;;;;;22.98;20.75;;;;;;;27.14;60.56;100484.34;1729632;81;21061;-77
2022/08/20 10:33:08;;;;;;;23.70;21.25;;;;;;;27.16;60.65;100485.05;1730859;81;21049;-76
2022/08/20 10:35:53;;;;;;;23.32;21.00;;;;;;;27.21;60.61;100478.85;1734143;81;21057;-76
2022/08/20 10:38:38;;;;;;;23.73;21.27;;;;;;;27.28;60.51;100480.48;1732322;81;21068;-75
2022/08/20 10:41:23;;;;;;;21.12;19.12;;;;;;;27.33;60.50;100481.76;1732203;81;21032;-75
2022/08/20 10:44:08;;;;;;;23.77;21.68;;;;;;;27.40;60.43;100475.41;1729310;81;21481;-75
2022/08/20 10:46:54;;;;;;;22.30;20.03;;;;;;;27.48;60.40;100478.23;1731549;81;21056;-77
2022/08/20 10:49:39;;;;;;;23.57;21.07;;;;;;;27.56;60.35;100476.19;1730419;81;21041;-78
2022/08/20 10:52:25;;;;;;;22.15;20.10;;;;;;;27.61;60.29;100477.50;1732299;81;21048;-77
2022/08/20 10:55:11;;;;;;;28.47;20.30;;;;;;;27.58;60.21;100473.75;1732759;81;21996;-77
2022/08/20 10:57:56;;;;;;;23.97;20.30;;;;;;;27.65;60.21;100472.26;1734350;81;20978;-77
2022/08/20 11:00:41;;;;;;;25.68;23.12;;;;;;;27.75;60.12;100473.60;1732357;81;21967;-77
2022/08/20 11:03:26;;;;;;;22.95;20.55;;;;;;;27.84;60.02;100471.45;1732766;81;20958;-77
2022/08/20 11:06:11;;;;;;;25.08;20.82;;;;;;;27.89;59.92;100468.37;1735266;81;20909;-77
2022/08/20 11:08:56;;;;;;;23.75;21.48;;;;;;;27.92;59.85;100464.11;1732433;81;20902;-78
2022/08/20 11:11:41;;;;;;;23.57;21.25;;;;;;;27.81;59.81;100463.75;1733886;81;20941;-77
2022/08/20 11:14:26;;;;;;;22.52;20.35;;;;;;;27.79;59.66;100452.91;1734503;81;20952;-77
2022/08/20 11:17:12;;;;;;;23.57;21.12;;;;;;;27.75;59.53;100463.46;1732127;81;21271;-77
2022/08/20 11:19:58;;;;;;;22.83;20.47;;;;;;;27.76;59.64;100465.98;1732885;81;21253;-77
2022/08/20 11:22:42;;;;;;;23.27;20.92;;;;;;;27.78;59.55;100465.35;1719088;81;21288;-77
2022/08/20 11:25:28;;;;;;;26.70;22.42;;;;;;;27.80;59.41;100461.23;1725210;81;21549;-77
2022/08/20 11:28:14;;;;;;;25.10;22.42;;;;;;;27.77;59.30;100461.51;1729732;82;20958;-78
2022/08/20 11:31:00;;;;;;;25.15;22.07;;;;;;;27.77;59.26;100466.82;1719554;81;20950;-78
2022/08/20 11:33:44;;;;;;;24.50;22.05;;;;;;;27.73;59.28;100474.23;1723735;81;20965;-77
2022/08/20 11:36:30;;;;;;;23.40;21.02;;;;;;;27.77;59.22;100475.63;1730081;81;20947;-77
2022/08/20 11:39:15;;;;;;;22.80;20.40;;;;;;;27.77;59.14;100474.79;1730678;81;20939;-78
2022/08/20 11:42:00;;;;;;;24.20;20.35;;;;;;;27.74;59.16;100472.41;1724771;81;21535;-78
2022/08/20 11:44:45;;;;;;;23.10;20.70;;;;;;;27.78;59.06;100475.98;1723978;81;20925;-77
2022/08/20 11:47:32;;;;;;;21.85;19.73;;;;;;;27.79;58.96;100476.82;1728157;81;20923;-78
2022/08/20 11:50:20;;;;;;;22.62;20.27;;;;;;;27.82;58.94;100484.03;1729331;81;20900;-77
2022/08/20 11:53:05;;;;;;;26.33;20.48;;;;;;;27.85;58.87;100477.59;1730714;81;20946;-77
2022/08/20 11:55:50;;;;;;;21.65;19.23;;;;;;;27.86;58.79;100481.94;1731354;81;20963;-76
2022/08/20 11:58:35;;;;;;;40.15;19.00;;;;;;;27.91;58.72;100473.05;1730086;81;20965;-76
2022/08/20 12:01:19;;;;;;;20.52;18.40;;;;;;;27.93;58.61;100475.92;1731865;81;20920;-75
2022/08/20 12:04:04;;;;;;;22.22;19.30;;;;;;;27.95;58.55;100480.61;1728883;81;20908;-78
2022/08/20 12:06:49;;;;;;;23.00;18.52;;;;;;;27.97;58.46;100471.17;1722330;81;20926;-78
2022/08/20 12:09:34;;;;;;;41.00;19.45;;;;;;;27.98;58.40;100471.52;1732511;81;20910;-76
2022/08/20 12:12:22;;;;;;;20.65;18.57;;;;;;;28.00;58.38;100473.55;1717600;81;20907;-75
2022/08/20 12:15:09;;;;;;;19.77;17.65;;;;;;;28.02;58.29;100468.94;1735106;82;20957;-75
2022/08/20 12:17:54;;;;;;;21.70;18.35;;;;;;;28.00;58.17;100464.25;1726849;81;21425;-75
2022/08/20 12:20:39;;;;;;;20.80;18.40;;;;;;;28.02;58.15;100458.30;1734238;81;20893;-75
2022/08/20 12:23:24;;;;;;;22.87;18.73;;;;;;;28.07;58.12;100460.54;1729625;81;22312;-75
2022/08/20 12:26:09;;;;;;;21.33;19.15;;;;;;;28.09;58.03;100459.39;1725243;81;21089;-75
2022/08/20 12:28:54;;;;;;;21.57;17.62;;;;;;;28.11;57.96;100464.08;1729940;81;21041;-75
2022/08/20 12:31:40;;;;;;;19.45;17.40;;;;;;;28.14;57.92;100457.64;1728472;81;21061;-76
2022/08/20 12:34:25;;;;;;;19.57;17.62;;;;;;;28.17;57.90;100466.66;1729840;81;21136;-75
2022/08/20 12:37:15;;;;;;;20.85;18.70;;;;;;;28.16;57.84;100465.82;1731327;81;21056;-76
2022/08/20 12:40:04;;;;;;;27.00;18.80;;;;;;;28.04;57.84;100466.98;1732250;81;21053;-76
2022/08/20 12:42:49;;;;;;;23.27;20.88;;;;;;;27.89;57.96;100463.05;1732675;81;21041;-76